Time;durP1;ratioP1;P1;durP2;ratioP2;P2;SDS_P1;SDS_P2;PMS_P1;PMS_P2;Temp;Humidity;BMP_temperature;BMP_pressure;BME280_temperature;BME280_humidity;BME280_pressure;Samples;Min_cycle;Max_cycle;Signal;HPM_P1;HPM_P2
2021/09/02 00:00:59;;;;;;;11.00;5.40;;;18.10;99.90;;;;;;5013041;28;20165;-84
2021/09/02 00:03:25;;;;;;;11.70;5.30;;;18.10;99.90;;;;;;5011991;28;20226;-84
2021/09/02 00:05:50;;;;;;;10.10;5.38;;;17.90;99.90;;;;;;5012234;28;20176;-83
2021/09/02 00:08:16;;;;;;;10.63;5.05;;;17.90;99.90;;;;;;5013486;28;20184;-80
2021/09/02 00:10:42;;;;;;;6.82;4.82;;;17.90;99.90;;;;;;5013476;28;20800;-80
2021/09/02 00:13:08;;;;;;;16.00;4.90;;;18.10;99.90;;;;;;5012936;28;20536;-85
2021/09/02 00:15:34;;;;;;;9.05;5.38;;;18.10;99.90;;;;;;5012207;28;20169;-82
2021/09/02 00:18:00;;;;;;;7.32;4.60;;;18.20;99.90;;;;;;5013368;28;20208;-87
2021/09/02 00:20:27;;;;;;;7.38;4.65;;;18.40;99.90;;;;;;5028008;28;20180;-78
2021/09/02 00:22:53;;;;;;;6.25;4.97;;;18.40;99.90;;;;;;5031594;28;20161;-83
2021/09/02 00:25:18;;;;;;;8.32;4.72;;;18.30;99.90;;;;;;5038183;28;20183;-79
2021/09/02 00:27:44;;;;;;;9.50;5.22;;;18.60;99.90;;;;;;5040195;28;20180;-85
2021/09/02 00:30:11;;;;;;;7.95;4.90;;;18.60;99.90;;;;;;5019524;28;20187;-86
2021/09/02 00:32:36;;;;;;;4.90;4.28;;;18.80;99.90;;;;;;5019103;28;20168;-80
2021/09/02 00:35:03;;;;;;;14.57;4.93;;;18.70;99.90;;;;;;5017417;28;20601;-82
2021/09/02 00:37:29;;;;;;;9.73;5.18;;;18.50;99.90;;;;;;5017045;28;20572;-84
2021/09/02 00:39:55;;;;;;;9.82;4.63;;;18.40;99.90;;;;;;5019385;28;20161;-83
2021/09/02 00:42:20;;;;;;;11.07;4.93;;;18.20;99.90;;;;;;5017134;28;20215;-86
2021/09/02 00:44:47;;;;;;;10.02;4.35;;;17.90;99.90;;;;;;5016490;28;20177;-80
2021/09/02 00:47:15;;;;;;;8.18;4.78;;;17.90;99.90;;;;;;5016341;28;20230;-86
2021/09/02 00:49:42;;;;;;;6.95;5.07;;;18.20;99.90;;;;;;5016139;28;20579;-84
2021/09/02 00:52:17;;;;;;;12.25;5.20;;;18.30;99.90;;;;;;5017191;28;20215;-84
2021/09/02 00:54:57;;;;;;;10.20;5.78;;;18.20;99.90;;;;;;5017111;28;20230;-85
2021/09/02 00:57:26;;;;;;;10.82;5.32;;;18.20;99.90;;;;;;5015761;28;20218;-81
2021/09/02 00:59:54;;;;;;;16.02;5.40;;;18.30;99.90;;;;;;5016909;28;20169;-81
2021/09/02 01:02:21;;;;;;;7.47;4.22;;;18.20;99.90;;;;;;5016474;28;20169;-84
2021/09/02 01:04:46;;;;;;;11.75;5.85;;;18.20;99.90;;;;;;5017203;28;20283;-84
2021/09/02 01:07:13;;;;;;;10.32;5.22;;;18.10;99.90;;;;;;5017061;28;20196;-79
2021/09/02 01:09:40;;;;;;;6.28;5.47;;;18.20;99.90;;;;;;5016534;28;20240;-86
2021/09/02 01:12:46;;;;;;;11.57;5.20;;;18.20;99.90;;;;;;5016356;28;20165;-84
2021/09/02 01:15:18;;;;;;;8.27;4.55;;;18.00;99.90;;;;;;4978352;28;20236;-82
2021/09/02 01:17:46;;;;;;;11.52;6.05;;;18.10;99.90;;;;;;4994328;28;20301;-85
2021/09/02 01:20:14;;;;;;;11.63;5.53;;;18.20;99.90;;;;;;5006044;28;20181;-86
2021/09/02 01:22:42;;;;;;;7.78;5.28;;;17.90;99.90;;;;;;5015796;28;20168;-84
2021/09/02 01:25:13;;;;;;;7.53;4.63;;;17.80;99.90;;;;;;5015525;28;20172;-87
2021/09/02 01:27:43;;;;;;;7.60;5.60;;;17.80;99.90;;;;;;5015339;28;20200;-83
2021/09/02 01:30:11;;;;;;;12.52;5.20;;;17.80;99.90;;;;;;5015903;28;20169;-86
2021/09/02 01:32:38;;;;;;;7.82;4.82;;;18.00;99.90;;;;;;5015840;28;20247;-85
2021/09/02 01:35:09;;;;;;;8.70;4.75;;;18.10;99.90;;;;;;5014438;28;20160;-85
2021/09/02 01:37:43;;;;;;;13.25;5.03;;;17.90;99.90;;;;;;5013811;28;20263;-82
2021/09/02 01:40:14;;;;;;;12.65;5.47;;;17.80;99.90;;;;;;5015277;28;20605;-85
2021/09/02 01:42:40;;;;;;;9.70;5.05;;;17.80;99.90;;;;;;5015316;28;20203;-83
2021/09/02 01:45:06;;;;;;;6.95;5.15;;;17.80;99.90;;;;;;5015334;28;20169;-85
2021/09/02 01:47:32;;;;;;;8.23;4.93;;;17.70;99.90;;;;;;5014052;28;20214;-86
2021/09/02 01:50:10;;;;;;;5.60;5.00;;;17.90;99.90;;;;;;5015316;28;20593;-79
2021/09/02 01:52:36;;;;;;;5.60;4.93;;;17.70;99.90;;;;;;5014265;28;20175;-85
2021/09/02 01:55:04;;;;;;;5.35;4.30;;;17.70;99.90;;;;;;5013938;28;20176;-82
2021/09/02 01:57:29;;;;;;;7.68;4.68;;;17.60;99.90;;;;;;5014736;28;20311;-84
2021/09/02 01:59:55;;;;;;;12.88;5.07;;;17.60;99.90;;;;;;5014150;28;20667;-84
2021/09/02 02:02:21;;;;;;;11.50;5.05;;;17.60;99.90;;;;;;5014969;28;20255;-87
2021/09/02 02:04:46;;;;;;;8.80;4.63;;;17.40;99.90;;;;;;5014075;28;20536;-84
2021/09/02 02:07:12;;;;;;;8.65;5.18;;;17.50;99.90;;;;;;5014913;28;20184;-80
2021/09/02 02:09:38;;;;;;;7.43;4.88;;;17.90;99.90;;;;;;5014848;28;20527;-86
2021/09/02 02:12:05;;;;;;;4.90;4.10;;;18.00;99.90;;;;;;5014705;28;20176;-86
2021/09/02 02:14:30;;;;;;;13.43;5.15;;;18.10;99.90;;;;;;5014629;28;20251;-87
2021/09/02 02:16:56;;;;;;;9.88;4.95;;;18.10;99.90;;;;;;5014291;28;20279;-83
2021/09/02 02:19:21;;;;;;;8.88;5.05;;;17.90;99.90;;;;;;5014758;28;20248;-84
2021/09/02 02:21:47;;;;;;;7.63;4.65;;;18.00;99.90;;;;;;5015082;28;20169;-84
2021/09/02 02:24:13;;;;;;;9.25;4.82;;;17.90;99.90;;;;;;5013692;28;20211;-84
2021/09/02 02:26:39;;;;;;;5.82;4.70;;;17.90;99.90;;;;;;5014409;28;20239;-86
2021/09/02 02:29:04;;;;;;;7.95;5.43;;;18.00;99.90;;;;;;5014232;28;20187;-82
2021/09/02 02:31:30;;;;;;;9.02;5.00;;;18.10;99.90;;;;;;5014846;28;20227;-82
2021/09/02 02:33:56;;;;;;;17.20;4.43;;;18.00;99.90;;;;;;5014429;28;20247;-82
2021/09/02 02:36:22;;;;;;;9.07;5.50;;;17.90;99.90;;;;;;5014501;28;20726;-87
2021/09/02 02:38:47;;;;;;;9.07;5.43;;;17.60;99.90;;;;;;5014673;28;20200;-87
2021/09/02 02:41:13;;;;;;;8.55;4.40;;;17.50;99.90;;;;;;5013293;28;20180;-86
2021/09/02 02:43:39;;;;;;;9.73;5.50;;;17.50;99.90;;;;;;5014178;28;20215;-86
2021/09/02 02:46:04;;;;;;;7.97;4.82;;;17.60;99.90;;;;;;5013063;28;20172;-83
2021/09/02 02:48:31;;;;;;;9.85;4.75;;;17.80;99.90;;;;;;5013461;28;20200;-86
2021/09/02 02:50:56;;;;;;;7.43;5.03;;;17.80;99.90;;;;;;5014314;28;20169;-86
2021/09/02 02:53:22;;;;;;;7.95;4.80;;;17.90;99.90;;;;;;5014275;28;20494;-85
2021/09/02 02:55:48;;;;;;;5.95;4.63;;;18.00;99.90;;;;;;5013413;28;20172;-85
2021/09/02 02:58:13;;;;;;;9.23;4.75;;;18.10;99.90;;;;;;5012606;28;20208;-84
2021/09/02 03:00:39;;;;;;;11.27;5.25;;;18.00;99.90;;;;;;5012769;28;20230;-79
2021/09/02 03:03:05;;;;;;;16.08;5.35;;;18.00;99.90;;;;;;5013880;28;20179;-82
2021/09/02 03:05:31;;;;;;;7.90;4.10;;;18.10;99.90;;;;;;5014360;28;20174;-83
2021/09/02 03:07:56;;;;;;;6.13;4.47;;;18.00;99.90;;;;;;5013701;28;20200;-88
2021/09/02 03:10:22;;;;;;;14.38;4.57;;;17.90;99.90;;;;;;5013205;28;20229;-85
2021/09/02 03:12:48;;;;;;;10.25;6.10;;;17.90;99.90;;;;;;5012719;28;20187;-87
2021/09/02 03:15:13;;;;;;;10.00;4.70;;;17.90;99.90;;;;;;5014281;28;20240;-82
2021/09/02 03:17:39;;;;;;;9.30;5.22;;;17.90;99.90;;;;;;5014021;28;20696;-89
2021/09/02 03:20:07;;;;;;;7.10;5.15;;;17.90;99.90;;;;;;5012041;28;20629;-89
2021/09/02 03:22:32;;;;;;;7.45;4.95;;;18.10;99.90;;;;;;5013699;28;20176;-88
2021/09/02 03:24:58;;;;;;;8.38;4.90;;;17.80;99.90;;;;;;5013442;28;20648;-81
2021/09/02 03:27:24;;;;;;;7.60;4.30;;;17.60;99.90;;;;;;5012190;28;20298;-87
2021/09/02 03:29:49;;;;;;;7.13;5.28;;;17.50;99.90;;;;;;5013464;28;20165;-83
2021/09/02 03:32:15;;;;;;;13.55;5.03;;;17.50;99.90;;;;;;5013762;28;20188;-83
2021/09/02 03:34:40;;;;;;;13.73;4.65;;;17.50;99.90;;;;;;5014985;28;20164;-86
2021/09/02 03:37:06;;;;;;;10.70;5.97;;;17.60;99.90;;;;;;5013540;28;20668;-80
2021/09/02 03:39:32;;;;;;;12.95;4.97;;;17.60;99.90;;;;;;5013560;28;20250;-86
2021/09/02 03:41:58;;;;;;;9.05;5.22;;;17.40;99.90;;;;;;5013718;28;20172;-88
2021/09/02 03:44:24;;;;;;;13.63;5.20;;;17.60;99.90;;;;;;5013556;28;20172;-85
2021/09/02 03:46:49;;;;;;;9.13;5.28;;;17.70;99.90;;;;;;5012122;28;21198;-81
2021/09/02 03:49:15;;;;;;;9.98;6.40;;;17.80;99.90;;;;;;5012297;28;20160;-87
2021/09/02 03:51:40;;;;;;;12.15;5.25;;;17.60;99.90;;;;;;5012652;28;20172;-88
2021/09/02 03:54:06;;;;;;;9.57;5.35;;;17.50;99.90;;;;;;5012295;28;20540;-88
2021/09/02 03:56:33;;;;;;;8.73;4.60;;;17.20;99.90;;;;;;5013748;28;20196;-85
2021/09/02 03:58:58;;;;;;;8.63;4.80;;;17.30;99.90;;;;;;5013428;28;20196;-85
2021/09/02 04:01:25;;;;;;;7.53;4.80;;;17.30;99.90;;;;;;5016693;28;20613;-82
2021/09/02 04:03:52;;;;;;;13.10;5.63;;;17.20;99.90;;;;;;5016746;28;20168;-91
2021/09/02 04:06:17;;;;;;;9.20;4.53;;;17.10;99.90;;;;;;5017288;28;20526;-86
2021/09/02 04:08:43;;;;;;;10.82;5.68;;;17.00;99.90;;;;;;5017171;28;20207;-86
2021/09/02 04:11:09;;;;;;;12.68;4.90;;;17.10;99.90;;;;;;5017431;28;20259;-83
2021/09/02 04:13:34;;;;;;;15.00;4.85;;;17.10;99.90;;;;;;5017206;28;20284;-85
2021/09/02 04:16:00;;;;;;;11.90;5.28;;;17.10;99.90;;;;;;5017228;28;20179;-87
2021/09/02 04:18:26;;;;;;;12.77;5.65;;;17.00;99.90;;;;;;5016792;28;20271;-88
2021/09/02 04:20:51;;;;;;;5.68;4.40;;;16.90;99.90;;;;;;5016057;28;20178;-87
2021/09/02 04:23:17;;;;;;;11.68;5.85;;;16.90;99.90;;;;;;5015458;28;20206;-84
2021/09/02 04:25:42;;;;;;;9.85;4.70;;;16.90;99.90;;;;;;5016832;28;20267;-81
2021/09/02 04:28:08;;;;;;;14.75;5.97;;;16.80;99.90;;;;;;5015449;28;20188;-82
2021/09/02 04:30:34;;;;;;;12.63;5.75;;;17.10;99.90;;;;;;5015343;28;20267;-86
2021/09/02 04:33:01;;;;;;;7.20;5.75;;;17.30;99.90;;;;;;5017442;28;20164;-81
2021/09/02 04:35:28;;;;;;;15.05;5.15;;;17.20;99.90;;;;;;5017436;28;20232;-81
2021/09/02 04:37:54;;;;;;;11.70;6.50;;;17.20;99.90;;;;;;5016856;28;20232;-85
2021/09/02 04:40:20;;;;;;;13.98;5.65;;;17.10;99.90;;;;;;5016905;28;20179;-86
2021/09/02 04:42:46;;;;;;;11.30;5.20;;;17.20;99.90;;;;;;5015722;28;20191;-82
2021/09/02 04:45:12;;;;;;;13.27;5.90;;;17.10;99.90;;;;;;5016975;28;20172;-86
2021/09/02 04:47:39;;;;;;;8.95;5.85;;;16.90;99.90;;;;;;5017309;28;20184;-88
2021/09/02 04:50:07;;;;;;;11.90;7.72;;;16.80;99.90;;;;;;5019510;28;20168;-86
2021/09/02 04:52:33;;;;;;;10.65;7.38;;;16.60;99.90;;;;;;5031013;28;20164;-79
2021/09/02 04:54:59;;;;;;;12.13;6.90;;;16.70;99.90;;;;;;5035003;28;20180;-83
2021/09/02 04:57:24;;;;;;;17.98;7.38;;;16.40;99.90;;;;;;5040566;28;20279;-83
2021/09/02 04:59:50;;;;;;;15.95;7.43;;;16.40;99.90;;;;;;5031923;28;20177;-89
2021/09/02 05:02:16;;;;;;;14.50;8.45;;;16.30;99.90;;;;;;5019421;28;20187;-88
2021/09/02 05:04:42;;;;;;;14.40;7.93;;;16.40;99.90;;;;;;5019680;28;20172;-88
2021/09/02 05:07:07;;;;;;;15.35;7.93;;;16.40;99.90;;;;;;5019100;28;20181;-90
2021/09/02 05:09:34;;;;;;;14.30;7.82;;;16.50;99.90;;;;;;5017444;28;20696;-84
2021/09/02 05:11:59;;;;;;;11.85;8.35;;;16.50;99.90;;;;;;5016834;28;20506;-85
2021/09/02 05:14:25;;;;;;;9.00;7.55;;;16.50;99.90;;;;;;5017279;28;20197;-84
2021/09/02 05:16:51;;;;;;;13.85;6.80;;;16.50;99.90;;;;;;5016448;28;20563;-85
2021/09/02 05:19:16;;;;;;;41.10;9.60;;;16.50;99.90;;;;;;5016378;28;20169;-81
2021/09/02 05:21:43;;;;;;;18.85;9.10;;;16.40;99.90;;;;;;5015905;28;20196;-83
2021/09/02 05:24:09;;;;;;;14.85;8.13;;;16.50;99.90;;;;;;5016504;28;20173;-86
2021/09/02 05:26:34;;;;;;;16.48;8.20;;;16.50;99.90;;;;;;5014967;28;20267;-88
2021/09/02 05:29:00;;;;;;;12.70;8.48;;;16.60;99.90;;;;;;5015878;28;20704;-89
2021/09/02 05:31:26;;;;;;;19.92;9.25;;;16.50;99.90;;;;;;5014871;28;20168;-85
2021/09/02 05:33:53;;;;;;;12.82;8.48;;;16.50;99.90;;;;;;5014694;28;20179;-83
2021/09/02 05:36:19;;;;;;;28.50;8.98;;;16.50;99.90;;;;;;5015528;28;20183;-84
2021/09/02 05:38:45;;;;;;;14.45;8.60;;;16.40;99.90;;;;;;5015036;28;20196;-84
2021/09/02 05:41:11;;;;;;;14.25;9.07;;;16.50;99.90;;;;;;5015683;28;20183;-85
2021/09/02 05:43:36;;;;;;;21.85;8.80;;;16.40;99.90;;;;;;5015365;28;20168;-85
2021/09/02 05:46:02;;;;;;;16.17;8.85;;;16.60;99.90;;;;;;5013753;28;20650;-80
2021/09/02 05:48:28;;;;;;;17.65;9.80;;;16.70;99.90;;;;;;5014193;28;20196;-86
2021/09/02 05:50:54;;;;;;;21.08;10.20;;;16.70;99.90;;;;;;5016376;28;20210;-79
2021/09/02 05:53:21;;;;;;;19.15;11.10;;;16.50;99.90;;;;;;5015566;28;20171;-78
2021/09/02 05:55:48;;;;;;;12.85;10.32;;;16.60;99.90;;;;;;5014852;28;20196;-80
2021/09/02 05:58:14;;;;;;;23.65;11.40;;;16.80;99.90;;;;;;5013191;28;20219;-88
2021/09/02 06:00:40;;;;;;;18.00;10.70;;;16.70;99.90;;;;;;5018181;28;20705;-83
2021/09/02 06:03:05;;;;;;;20.50;10.02;;;16.90;99.90;;;;;;5015477;28;20173;-81
2021/09/02 06:05:31;;;;;;;31.05;9.98;;;16.80;99.90;;;;;;5014191;28;20203;-79
2021/09/02 06:07:57;;;;;;;24.88;11.10;;;16.70;99.90;;;;;;5014936;28;20227;-89
2021/09/02 06:10:23;;;;;;;21.65;11.55;;;16.70;99.90;;;;;;5014065;28;20184;-82
2021/09/02 06:12:48;;;;;;;29.63;11.57;;;16.80;99.90;;;;;;5014525;28;20169;-84
2021/09/02 06:15:14;;;;;;;21.58;11.00;;;16.80;99.90;;;;;;5015659;28;20279;-92
2021/09/02 06:17:40;;;;;;;25.60;11.25;;;16.80;99.90;;;;;;5015802;28;20242;-83
2021/09/02 06:20:07;;;;;;;18.63;11.52;;;16.90;99.90;;;;;;5012640;28;20625;-83
2021/09/02 06:22:34;;;;;;;33.47;11.30;;;17.00;99.90;;;;;;5014253;28;20164;-84
2021/09/02 06:25:00;;;;;;;15.63;10.48;;;17.00;99.90;;;;;;5011438;28;20621;-82
2021/09/02 06:27:27;;;;;;;13.30;8.93;;;17.10;99.90;;;;;;5012369;28;20678;-83
2021/09/02 06:29:52;;;;;;;15.65;10.05;;;17.00;99.90;;;;;;5012226;28;20161;-83
2021/09/02 06:32:18;;;;;;;20.48;9.73;;;17.10;99.90;;;;;;5014196;28;20656;-84
2021/09/02 06:34:45;;;;;;;15.43;9.27;;;17.20;99.90;;;;;;5013511;28;20523;-84
2021/09/02 06:37:10;;;;;;;11.40;8.65;;;17.20;99.90;;;;;;5012737;28;20200;-83
2021/09/02 06:39:36;;;;;;;17.17;9.60;;;17.30;99.90;;;;;;5013018;28;20575;-82
2021/09/02 06:42:02;;;;;;;12.20;9.82;;;17.30;99.90;;;;;;5011482;28;20307;-80
2021/09/02 06:44:27;;;;;;;18.45;8.95;;;17.20;99.90;;;;;;5013236;28;20177;-81
2021/09/02 06:46:53;;;;;;;14.57;8.52;;;17.40;99.90;;;;;;5013262;28;20213;-80
2021/09/02 06:49:20;;;;;;;10.65;8.27;;;17.50;99.90;;;;;;5013578;28;20177;-84
2021/09/02 06:51:47;;;;;;;15.48;8.40;;;17.50;99.90;;;;;;5012423;28;20168;-78
2021/09/02 06:54:12;;;;;;;12.15;8.20;;;17.80;99.90;;;;;;5013282;28;20207;-78
2021/09/02 06:56:38;;;;;;;8.38;6.82;;;17.90;99.90;;;;;;5014303;28;20612;-90
2021/09/02 06:59:04;;;;;;;12.43;6.70;;;18.00;99.90;;;;;;5013810;28;20199;-85
2021/09/02 07:01:30;;;;;;;11.00;6.95;;;17.80;99.90;;;;;;5013663;28;20161;-89
2021/09/02 07:03:55;;;;;;;10.55;6.88;;;17.70;99.90;;;;;;5013525;28;20255;-90
2021/09/02 07:06:21;;;;;;;15.18;7.07;;;17.70;99.90;;;;;;5013975;28;20176;-86
2021/09/02 07:08:47;;;;;;;13.05;7.70;;;17.80;99.90;;;;;;5012987;28;20184;-79
2021/09/02 07:11:13;;;;;;;11.43;6.97;;;18.00;99.90;;;;;;5012738;28;20193;-75
2021/09/02 07:13:39;;;;;;;12.27;7.90;;;18.10;99.90;;;;;;5012963;28;20802;-79
2021/09/02 07:16:05;;;;;;;11.88;7.13;;;18.20;99.90;;;;;;5011867;28;20172;-79
2021/09/02 07:18:31;;;;;;;14.20;7.00;;;18.20;99.90;;;;;;5012558;28;20196;-78
2021/09/02 07:20:57;;;;;;;12.10;8.15;;;18.10;99.90;;;;;;5011960;28;20161;-78
2021/09/02 07:23:23;;;;;;;10.50;6.68;;;17.90;99.90;;;;;;5012280;28;20732;-82
2021/09/02 07:25:50;;;;;;;14.73;7.57;;;18.00;99.90;;;;;;5008487;28;20247;-80
2021/09/02 07:28:16;;;;;;;19.35;7.35;;;17.70;99.90;;;;;;5009820;28;20196;-82
2021/09/02 07:30:43;;;;;;;14.30;8.65;;;17.60;99.90;;;;;;5012251;28;20172;-81
2021/09/02 07:33:09;;;;;;;16.77;8.10;;;17.70;99.90;;;;;;5012254;28;20200;-83
2021/09/02 07:35:35;;;;;;;14.25;7.50;;;17.70;99.90;;;;;;5009571;28;20176;-81
2021/09/02 07:38:01;;;;;;;17.48;8.95;;;17.70;99.90;;;;;;5013403;28;20212;-82
2021/09/02 07:40:26;;;;;;;35.00;10.40;;;17.80;99.90;;;;;;5014141;28;20180;-82
2021/09/02 07:42:52;;;;;;;23.08;8.82;;;17.80;99.90;;;;;;5013267;28;20202;-89
2021/09/02 07:45:18;;;;;;;11.95;7.78;;;18.00;99.90;;;;;;5013839;28;20172;-80
2021/09/02 07:47:43;;;;;;;12.73;8.18;;;18.20;99.90;;;;;;5013588;28;20189;-82
2021/09/02 07:50:10;;;;;;;13.68;8.32;;;18.30;99.90;;;;;;5012026;28;20161;-87
2021/09/02 07:52:36;;;;;;;14.50;8.85;;;18.40;99.90;;;;;;5012300;28;20179;-85
2021/09/02 07:55:04;;;;;;;39.47;8.75;;;18.30;99.90;;;;;;5012414;28;20175;-85
2021/09/02 07:57:30;;;;;;;43.95;9.73;;;18.60;99.90;;;;;;5010187;28;20212;-80
2021/09/02 07:59:56;;;;;;;20.77;7.65;;;18.80;99.90;;;;;;5012832;28;20613;-81
2021/09/02 08:02:21;;;;;;;14.60;7.18;;;19.00;99.90;;;;;;5013900;28;20168;-78
2021/09/02 08:04:47;;;;;;;15.98;7.50;;;19.10;99.90;;;;;;5016625;28;20651;-84
2021/09/02 08:07:12;;;;;;;9.73;5.50;;;19.10;99.90;;;;;;5004765;28;20296;-79
2021/09/02 08:09:38;;;;;;;11.40;7.25;;;19.00;99.90;;;;;;4990657;28;20798;-79
2021/09/02 08:12:05;;;;;;;10.15;6.32;;;19.20;99.90;;;;;;5000564;28;20184;-83
2021/09/02 08:14:31;;;;;;;11.13;6.15;;;19.50;99.90;;;;;;5013086;28;20236;-80
2021/09/02 08:16:57;;;;;;;15.25;7.25;;;19.70;99.90;;;;;;5011187;28;20282;-82
2021/09/02 08:19:23;;;;;;;8.90;6.20;;;19.60;99.90;;;;;;5010934;28;20176;-82
2021/09/02 08:21:49;;;;;;;11.30;7.43;;;19.40;99.90;;;;;;5013475;28;20180;-82
2021/09/02 08:24:16;;;;;;;11.77;6.10;;;19.10;99.90;;;;;;5012423;28;20200;-83
2021/09/02 08:26:43;;;;;;;13.27;7.40;;;18.80;99.90;;;;;;5011754;28;20191;-82
2021/09/02 08:29:09;;;;;;;12.27;6.18;;;18.80;99.90;;;;;;5013154;28;20692;-81
2021/09/02 08:31:34;;;;;;;9.45;6.78;;;18.80;99.90;;;;;;5010547;28;20153;-81
2021/09/02 08:34:00;;;;;;;14.50;6.05;;;18.70;99.90;;;;;;5011584;28;20180;-81
2021/09/02 08:36:26;;;;;;;10.77;6.30;;;18.80;99.90;;;;;;5010331;28;20177;-81
2021/09/02 08:38:52;;;;;;;11.85;6.68;;;18.90;99.90;;;;;;5010051;28;20200;-81
2021/09/02 08:41:19;;;;;;;19.75;6.93;;;18.90;99.90;;;;;;5012206;28;20196;-81
2021/09/02 08:43:46;;;;;;;17.75;7.20;;;18.80;99.90;;;;;;5011680;28;20184;-82
2021/09/02 08:46:13;;;;;;;17.95;7.65;;;18.80;99.90;;;;;;5011714;28;20352;-81
2021/09/02 08:48:48;;;;;;;17.48;8.07;;;18.80;99.90;;;;;;5013758;28;20552;-81
2021/09/02 08:51:15;;;;;;;16.48;7.32;;;18.90;99.90;;;;;;5015038;28;20648;-80
2021/09/02 08:53:42;;;;;;;17.75;8.52;;;19.00;99.90;;;;;;5014282;28;20531;-81
2021/09/02 08:56:08;;;;;;;18.92;9.23;;;19.10;99.90;;;;;;5014568;28;20521;-81
2021/09/02 08:58:34;;;;;;;15.55;8.02;;;19.30;99.90;;;;;;5015995;28;20216;-79
2021/09/02 09:00:59;;;;;;;15.32;8.45;;;19.30;99.90;;;;;;5026382;28;20624;-83
2021/09/02 09:03:26;;;;;;;26.20;10.05;;;19.50;99.90;;;;;;5026500;28;20185;-81
2021/09/02 09:05:58;;;;;;;21.00;10.48;;;19.40;99.90;;;;;;5023138;28;20160;-81
2021/09/02 09:08:51;;;;;;;13.60;9.13;;;19.30;99.90;;;;;;5026145;28;20209;-82
2021/09/02 09:11:28;;;;;;;13.40;9.25;;;19.30;99.90;;;;;;5035075;28;20161;-85
2021/09/02 09:14:10;;;;;;;24.85;11.43;;;19.20;99.90;;;;;;5033114;28;20176;-83
2021/09/02 09:16:46;;;;;;;15.98;11.23;;;19.30;99.90;;;;;;5019727;28;20298;-82
2021/09/02 09:19:36;;;;;;;21.17;10.00;;;19.50;99.90;;;;;;5017368;28;20168;-80
2021/09/02 09:22:03;;;;;;;18.00;10.38;;;19.40;99.90;;;;;;5015968;28;20524;-79
2021/09/02 09:24:47;;;;;;;19.10;11.32;;;19.40;99.90;;;;;;5014987;28;20176;-83
2021/09/02 09:27:16;;;;;;;16.80;10.63;;;19.40;99.90;;;;;;5015280;28;20276;-79
2021/09/02 09:29:41;;;;;;;17.88;10.68;;;19.30;99.90;;;;;;5015140;28;20225;-89
2021/09/02 09:32:18;;;;;;;22.65;10.55;;;19.50;99.90;;;;;;5016210;28;20200;-84
2021/09/02 09:34:53;;;;;;;24.90;10.20;;;19.70;99.90;;;;;;5015282;28;20172;-84
2021/09/02 09:37:21;;;;;;;25.42;10.98;;;19.70;99.90;;;;;;5015741;28;20226;-86
2021/09/02 09:39:48;;;;;;;22.85;11.93;;;19.70;99.90;;;;;;5015475;28;20181;-84
2021/09/02 09:42:17;;;;;;;24.00;10.68;;;19.90;99.90;;;;;;5016334;28;20262;-85
2021/09/02 09:44:43;;;;;;;22.52;10.85;;;20.00;99.90;;;;;;5016672;28;20200;-85
2021/09/02 09:47:09;;;;;;;20.77;10.90;;;20.20;99.90;;;;;;5017079;28;20231;-82
2021/09/02 09:49:44;;;;;;;17.95;11.10;;;20.30;99.90;;;;;;5015529;28;20183;-79
2021/09/02 09:52:41;;;;;;;11.55;9.57;;;20.20;99.90;;;;;;5015547;28;20198;-84
2021/09/02 09:55:11;;;;;;;20.08;11.52;;;20.00;99.90;;;;;;5015491;28;20205;-81
2021/09/02 09:57:40;;;;;;;17.65;11.38;;;20.00;99.90;;;;;;5014475;28;20270;-79
2021/09/02 10:00:12;;;;;;;15.68;10.60;;;20.10;99.90;;;;;;5015027;28;20184;-84
2021/09/02 10:02:41;;;;;;;22.02;10.93;;;20.00;99.90;;;;;;5016715;28;20165;-82
2021/09/02 10:05:09;;;;;;;24.30;10.60;;;20.10;99.90;;;;;;5019537;28;20554;-83
2021/09/02 10:07:36;;;;;;;20.77;9.88;;;20.20;99.90;;;;;;5016628;28;20191;-83
2021/09/02 10:10:03;;;;;;;20.40;10.35;;;20.40;99.90;;;;;;5015723;28;20176;-81
2021/09/02 10:12:34;;;;;;;20.38;10.45;;;20.50;99.90;;;;;;5013712;28;20215;-82
2021/09/02 10:15:06;;;;;;;17.65;10.02;;;20.50;99.90;;;;;;5015721;28;20590;-82
2021/09/02 10:17:34;;;;;;;18.05;9.27;;;20.50;99.90;;;;;;5014967;28;20288;-82
2021/09/02 10:20:32;;;;;;;17.05;9.70;;;20.60;99.90;;;;;;5015247;28;20237;-82
2021/09/02 10:23:00;;;;;;;14.30;8.70;;;20.60;99.90;;;;;;5006717;28;20181;-83
2021/09/02 10:25:35;;;;;;;25.45;10.20;;;20.50;99.90;;;;;;5013559;28;20238;-82
2021/09/02 10:28:09;;;;;;;17.00;9.52;;;20.50;99.90;;;;;;5013908;28;20596;-82
2021/09/02 10:30:46;;;;;;;11.93;8.80;;;20.70;99.90;;;;;;5013740;28;20175;-81
2021/09/02 10:33:36;;;;;;;13.93;8.77;;;20.70;99.90;;;;;;5013314;28;20175;-80
2021/09/02 10:36:11;;;;;;;11.02;8.95;;;20.80;99.90;;;;;;5013544;28;20636;-81
2021/09/02 10:38:50;;;;;;;13.65;8.77;;;20.70;99.90;;;;;;5013334;28;20224;-82
2021/09/02 10:41:36;;;;;;;11.38;7.82;;;20.90;99.90;;;;;;5013278;28;20561;-81
2021/09/02 10:44:02;;;;;;;13.75;7.93;;;20.70;99.90;;;;;;5012259;28;20195;-81
2021/09/02 10:46:31;;;;;;;31.92;8.35;;;20.80;99.90;;;;;;5013203;28;20192;-82
2021/09/02 10:49:27;;;;;;;33.47;7.95;;;21.10;99.90;;;;;;5013737;28;20653;-82
2021/09/02 10:51:56;;;;;;;20.30;7.50;;;21.20;99.90;;;;;;5008869;28;20184;-81
2021/09/02 10:54:32;;;;;;;13.10;7.25;;;21.60;99.90;;;;;;5013012;28;20568;-81
2021/09/02 10:57:13;;;;;;;11.82;7.50;;;21.70;99.90;;;;;;5013152;28;20211;-81
2021/09/02 10:59:48;;;;;;;17.27;7.22;;;21.70;99.90;;;;;;5013011;28;20172;-82
2021/09/02 11:02:17;;;;;;;11.80;7.35;;;21.80;99.90;;;;;;5014503;28;20172;-81
2021/09/02 11:04:44;;;;;;;10.52;6.47;;;21.80;99.90;;;;;;5014131;28;20578;-81
2021/09/02 11:07:10;;;;;;;11.45;6.57;;;21.60;99.90;;;;;;5014505;28;20199;-82
2021/09/02 11:09:38;;;;;;;13.63;6.85;;;21.50;99.90;;;;;;5013427;28;20702;-81
2021/09/02 11:12:11;;;;;;;16.02;7.32;;;21.40;99.90;;;;;;5013564;28;20181;-81
2021/09/02 11:14:47;;;;;;;8.20;6.35;;;21.40;99.90;;;;;;4995746;28;20164;-80
2021/09/02 11:17:17;;;;;;;13.30;6.35;;;21.70;99.90;;;;;;5024379;28;20211;-81
2021/09/02 11:19:43;;;;;;;9.15;7.18;;;21.60;99.90;;;;;;5016855;28;20177;-80
2021/09/02 11:22:14;;;;;;;16.25;6.55;;;21.30;99.90;;;;;;5012407;28;20592;-81
2021/09/02 11:24:45;;;;;;;9.82;6.07;;;21.70;99.90;;;;;;5012302;28;20255;-80
2021/09/02 11:27:31;;;;;;;11.07;7.22;;;21.90;99.90;;;;;;5011893;28;20207;-80
2021/09/02 11:30:17;;;;;;;10.95;6.55;;;21.80;99.90;;;;;;5012705;28;20697;-81
2021/09/02 11:32:45;;;;;;;15.88;7.55;;;21.70;99.90;;;;;;5011884;28;20172;-80
2021/09/02 11:35:12;;;;;;;9.77;5.95;;;21.70;99.90;;;;;;5013275;28;20160;-81
2021/09/02 11:37:42;;;;;;;10.00;7.15;;;21.70;99.90;;;;;;5011970;28;20223;-81
2021/09/02 11:40:20;;;;;;;16.35;7.82;;;21.70;99.90;;;;;;4995904;28;20172;-81
2021/09/02 11:42:47;;;;;;;14.45;8.48;;;21.90;99.90;;;;;;5011943;28;20176;-80
2021/09/02 11:45:18;;;;;;;9.98;7.85;;;22.00;99.90;;;;;;5013046;28;20199;-81
2021/09/02 11:47:44;;;;;;;7.05;6.05;;;22.10;99.90;;;;;;5011820;28;20196;-80
2021/09/02 11:50:10;;;;;;;11.60;7.90;;;22.10;99.90;;;;;;5011906;28;20195;-81
2021/09/02 11:52:38;;;;;;;21.42;8.15;;;21.80;99.90;;;;;;5012743;28;20180;-81
2021/09/02 11:55:05;;;;;;;15.07;7.07;;;22.00;99.90;;;;;;5011798;28;20260;-80
2021/09/02 11:57:31;;;;;;;16.48;6.28;;;22.00;99.90;;;;;;5011425;28;20216;-81
2021/09/02 11:59:56;;;;;;;10.30;5.75;;;22.00;99.90;;;;;;5011671;28;20215;-84
2021/09/02 12:02:22;;;;;;;7.22;5.85;;;22.00;99.90;;;;;;5012553;28;20168;-85
2021/09/02 12:04:52;;;;;;;24.52;7.78;;;21.80;99.90;;;;;;5015069;28;20525;-81
2021/09/02 12:07:18;;;;;;;6.82;5.70;;;21.60;99.90;;;;;;5012806;28;20192;-85
2021/09/02 12:09:50;;;;;;;12.48;6.43;;;21.60;99.90;;;;;;5014092;28;20211;-86
2021/09/02 12:12:32;;;;;;;7.43;6.18;;;21.70;99.90;;;;;;5012136;28;20613;-81
2021/09/02 12:14:58;;;;;;;9.75;6.38;;;21.90;99.90;;;;;;5015283;28;20168;-80
2021/09/02 12:17:37;;;;;;;15.18;5.72;;;22.00;99.90;;;;;;5021881;28;20231;-80
2021/09/02 12:20:04;;;;;;;11.68;6.03;;;22.10;99.90;;;;;;5029492;28;20240;-80
2021/09/02 12:22:40;;;;;;;10.20;7.18;;;22.20;99.90;;;;;;5037151;28;20144;-80
2021/09/02 12:25:18;;;;;;;13.60;7.55;;;22.50;99.90;;;;;;5016481;28;20169;-80
2021/09/02 12:27:47;;;;;;;10.15;6.57;;;22.60;99.90;;;;;;5015034;28;20211;-81
2021/09/02 12:30:15;;;;;;;9.70;6.43;;;22.60;99.90;;;;;;5015395;28;20269;-81
2021/09/02 12:32:41;;;;;;;11.07;7.15;;;22.40;99.90;;;;;;5014923;28;20564;-81
2021/09/02 12:35:18;;;;;;;31.55;8.32;;;22.50;99.90;;;;;;5016554;28;20255;-82
2021/09/02 12:37:44;;;;;;;14.50;7.18;;;22.60;99.90;;;;;;5015755;28;20322;-82
2021/09/02 12:40:19;;;;;;;9.57;6.22;;;22.60;99.90;;;;;;5015357;28;20183;-82
2021/09/02 12:42:45;;;;;;;12.23;6.63;;;22.50;99.90;;;;;;5014811;28;20671;-81